createdAt,value
2018-12-01T00:00:49.193Z,16.10
2018-12-01T00:01:49.107Z,19.50
2018-12-01T00:04:31.386Z,17.40
2018-12-01T00:05:31.257Z,17.60
2018-12-01T00:06:31.181Z,19.50
2018-12-01T00:07:31.099Z,16.70
2018-12-01T00:08:31.142Z,21.90
2018-12-01T00:09:30.952Z,20.20
2018-12-01T00:10:30.823Z,19.20
2018-12-01T00:11:30.761Z,17.90
2018-12-01T00:12:30.662Z,21.60
2018-12-01T00:13:30.629Z,16.40
2018-12-01T00:14:30.537Z,17.40
2018-12-01T00:15:30.425Z,17.90
2018-12-01T00:16:30.333Z,21.20
2018-12-01T00:17:30.267Z,16.80
2018-12-01T00:18:30.223Z,18.70
2018-12-01T00:19:30.080Z,18.60
2018-12-01T00:20:30.002Z,17.40
2018-12-01T00:21:29.923Z,17.20
2018-12-01T00:22:29.819Z,15.70
2018-12-01T00:23:29.793Z,16.20
2018-12-01T00:24:29.708Z,14.80
2018-12-01T00:25:29.593Z,19.30
2018-12-01T00:26:29.496Z,15.70
2018-12-01T00:27:29.446Z,18.30
2018-12-01T00:28:29.317Z,16.70
2018-12-01T00:29:29.246Z,17.50
2018-12-01T00:30:29.185Z,15.80
2018-12-01T00:31:29.067Z,22.00
2018-12-01T00:32:28.991Z,16.70
2018-12-01T00:33:28.906Z,16.50
2018-12-01T00:34:28.823Z,20.00
2018-12-01T00:35:28.890Z,19.60
2018-12-01T00:36:28.639Z,18.90
2018-12-01T00:37:28.563Z,15.10
2018-12-01T00:38:28.480Z,15.10
2018-12-01T00:39:28.394Z,15.10
2018-12-01T00:40:28.327Z,15.10
2018-12-01T00:41:28.224Z,14.20
2018-12-01T00:42:28.142Z,17.90
2018-12-01T00:43:28.058Z,13.00
2018-12-01T00:44:27.968Z,17.30
2018-12-01T00:45:27.909Z,14.80
2018-12-01T00:46:27.842Z,14.60
2018-12-01T00:47:27.721Z,15.90
2018-12-01T00:48:27.665Z,18.10
2018-12-01T00:49:27.546Z,13.70
2018-12-01T00:50:27.490Z,15.10
2018-12-01T00:51:28.411Z,18.40
2018-12-01T00:52:27.287Z,15.60
2018-12-01T00:53:27.233Z,13.30
2018-12-01T00:54:27.124Z,15.90
2018-12-01T00:55:27.210Z,15.60
2018-12-01T00:56:26.979Z,16.90
2018-12-01T00:57:26.914Z,18.90
2018-12-01T00:58:26.776Z,16.50
2018-12-01T01:01:08.887Z,12.90
2018-12-01T01:02:29.772Z,17.10
2018-12-01T01:03:29.658Z,15.50
2018-12-01T01:04:29.581Z,14.90
2018-12-01T01:08:43.394Z,17.40
2018-12-01T01:09:43.299Z,17.30
2018-12-01T01:10:43.210Z,16.20
2018-12-01T01:11:43.159Z,16.50
2018-12-01T01:12:43.089Z,16.70
2018-12-01T01:13:42.960Z,13.40
2018-12-01T01:14:42.865Z,13.50
2018-12-01T01:15:42.826Z,13.30
2018-12-01T01:16:42.731Z,15.30
2018-12-01T01:17:42.626Z,14.70
2018-12-01T01:18:42.538Z,16.60
2018-12-01T01:19:42.449Z,16.60
2018-12-01T01:20:42.392Z,17.80
2018-12-01T01:21:42.310Z,17.70
2018-12-01T01:22:42.198Z,14.90
2018-12-01T01:23:42.116Z,17.30
2018-12-01T01:24:42.023Z,14.10
2018-12-01T01:25:41.939Z,17.00
2018-12-01T01:26:41.903Z,16.60
2018-12-01T01:27:41.823Z,16.40
2018-12-01T01:28:41.691Z,17.40
2018-12-01T01:29:41.598Z,18.40
2018-12-01T01:30:41.517Z,19.20
2018-12-01T01:31:41.433Z,19.70
2018-12-01T01:32:41.386Z,14.50
2018-12-01T01:33:41.261Z,13.80
2018-12-01T01:34:41.187Z,18.50
2018-12-01T01:35:41.094Z,19.50
2018-12-01T01:38:23.474Z,14.90
2018-12-01T01:39:23.362Z,16.00
2018-12-01T01:40:23.269Z,17.60
2018-12-01T01:41:23.192Z,15.40
2018-12-01T01:42:23.102Z,15.20
2018-12-01T01:43:24.077Z,13.60
2018-12-01T01:44:23.503Z,14.10
2018-12-01T01:45:23.034Z,16.70
2018-12-01T01:46:22.770Z,17.60
2018-12-01T01:47:22.744Z,13.40
2018-12-01T01:48:22.625Z,15.90
2018-12-01T01:49:22.507Z,17.60
2018-12-01T01:50:22.421Z,16.10
2018-12-01T01:51:22.425Z,17.50
2018-12-01T01:52:22.257Z,16.20
2018-12-01T01:53:22.234Z,15.50
2018-12-01T01:54:22.083Z,14.50
2018-12-01T01:55:22.078Z,15.40
2018-12-01T01:56:21.914Z,14.40
2018-12-01T01:57:21.953Z,17.40
2018-12-01T01:58:21.786Z,16.00
2018-12-01T01:59:21.799Z,12.50
2018-12-01T02:00:21.576Z,14.30
2018-12-01T02:01:21.499Z,13.20
2018-12-01T02:02:21.413Z,16.30
2018-12-01T02:03:21.413Z,13.80
2018-12-01T02:04:21.279Z,19.60
2018-12-01T02:05:21.190Z,17.20
2018-12-01T02:06:21.069Z,13.60
2018-12-01T02:07:21.110Z,14.60
2018-12-01T02:08:20.922Z,14.70
2018-12-01T02:09:20.823Z,19.10
2018-12-01T02:10:20.729Z,18.70
2018-12-01T02:11:20.642Z,16.00
2018-12-01T02:12:20.562Z,16.00
2018-12-01T02:13:20.511Z,15.70
2018-12-01T02:14:20.390Z,15.70
2018-12-01T02:15:20.306Z,16.30
2018-12-01T02:16:20.226Z,14.70
2018-12-01T02:17:20.151Z,16.70
2018-12-01T02:18:20.058Z,12.60
2018-12-01T02:19:20.009Z,18.70
2018-12-01T02:20:19.890Z,14.20
2018-12-01T02:21:19.815Z,14.30
2018-12-01T02:22:19.710Z,19.00
2018-12-01T02:25:01.982Z,18.40
2018-12-01T02:26:01.870Z,16.30
2018-12-01T02:27:01.773Z,15.10
2018-12-01T02:28:01.700Z,19.90
2018-12-01T02:29:01.604Z,16.20
2018-12-01T02:30:02.559Z,15.80
2018-12-01T02:31:01.462Z,15.20
2018-12-01T02:33:43.448Z,16.80
2018-12-01T02:37:08.487Z,17.50
2018-12-01T02:38:08.359Z,17.90
2018-12-01T02:39:08.291Z,13.00
2018-12-01T02:40:08.233Z,12.80
2018-12-01T02:41:09.140Z,17.10
2018-12-01T02:42:08.023Z,17.40
2018-12-01T02:43:07.947Z,17.90
2018-12-01T02:44:07.863Z,14.60
2018-12-01T02:45:07.819Z,14.40
2018-12-01T02:46:07.682Z,17.70
2018-12-01T02:47:07.605Z,14.80
2018-12-01T02:48:07.519Z,12.50
2018-12-01T02:50:49.488Z,15.00
2018-12-01T02:51:49.386Z,17.80
2018-12-01T02:52:49.280Z,15.10
2018-12-01T02:55:31.480Z,12.50
2018-12-01T02:56:31.372Z,13.10
2018-12-01T02:57:31.298Z,13.50
2018-12-01T02:58:31.205Z,13.00
2018-12-01T02:59:31.113Z,11.50
2018-12-01T03:00:31.070Z,13.00
2018-12-01T03:01:30.954Z,19.40
2018-12-01T03:02:30.862Z,16.00
2018-12-01T03:03:30.773Z,13.50
2018-12-01T03:04:30.696Z,12.70
2018-12-01T03:05:30.613Z,13.80
2018-12-01T03:06:30.600Z,13.80
2018-12-01T03:07:30.439Z,12.10
2018-12-01T03:08:30.354Z,13.60
2018-12-01T03:09:30.266Z,12.80
2018-12-01T03:10:30.186Z,14.20
2018-12-01T03:11:30.265Z,14.40
2018-12-01T03:12:30.205Z,13.20
2018-12-01T03:13:29.985Z,13.40
2018-12-01T03:14:30.572Z,16.40
2018-12-01T03:15:29.786Z,9.80
2018-12-01T03:16:29.707Z,10.60
2018-12-01T03:17:29.592Z,10.80
2018-12-01T03:18:29.511Z,14.70
2018-12-01T03:19:29.422Z,14.60
2018-12-01T03:20:29.342Z,12.40
2018-12-01T03:21:29.281Z,13.20
2018-12-01T03:22:29.206Z,13.60
2018-12-01T03:23:29.075Z,12.20
2018-12-01T03:24:29.024Z,15.70
2018-12-01T03:25:28.928Z,13.80
2018-12-01T03:26:28.867Z,11.70
2018-12-01T03:27:28.797Z,12.80
2018-12-01T03:30:10.955Z,13.20
2018-12-01T03:31:10.895Z,10.00
2018-12-01T03:32:10.838Z,12.20
2018-12-01T03:33:10.711Z,14.80
2018-12-01T03:34:10.615Z,15.10
2018-12-01T03:35:10.542Z,13.90
2018-12-01T03:36:10.447Z,14.70
2018-12-01T03:38:52.485Z,16.20
2018-12-01T03:41:34.454Z,13.60
2018-12-01T03:42:35.439Z,14.50
2018-12-01T03:43:34.287Z,14.90
2018-12-01T03:48:09.001Z,11.40
2018-12-01T03:50:50.977Z,16.40
2018-12-01T03:52:11.864Z,12.70
2018-12-01T03:52:50.836Z,15.60
2018-12-01T03:55:44.972Z,10.90
2018-12-01T03:56:44.886Z,11.50
2018-12-01T03:57:44.809Z,13.70
2018-12-01T03:58:44.739Z,12.20
2018-12-01T04:01:26.961Z,15.50
2018-12-01T04:10:07.508Z,13.70
2018-12-01T04:11:07.423Z,12.00
2018-12-01T04:12:07.309Z,13.40
2018-12-01T04:13:07.300Z,12.10
2018-12-01T04:14:07.139Z,12.10
2018-12-01T04:16:48.981Z,14.30
2018-12-01T04:17:48.901Z,14.50
2018-12-01T04:18:48.828Z,12.50
2018-12-01T04:19:48.716Z,15.30
2018-12-01T04:20:48.628Z,11.30
2018-12-01T04:21:48.554Z,13.10
2018-12-01T04:22:48.465Z,12.20
2018-12-01T04:23:49.409Z,13.90
2018-12-01T04:24:48.289Z,16.50
2018-12-01T04:25:48.225Z,14.20
2018-12-01T04:26:48.132Z,15.90
2018-12-01T04:27:48.043Z,16.40
2018-12-01T04:28:47.978Z,14.80
2018-12-01T04:29:47.872Z,12.00
2018-12-01T04:30:47.807Z,13.60
2018-12-01T04:31:47.716Z,13.60
2018-12-01T04:32:47.619Z,13.60
2018-12-01T04:33:48.569Z,15.10
2018-12-01T04:34:47.456Z,12.80
2018-12-01T04:35:47.382Z,12.70
2018-12-01T04:36:47.281Z,15.10
2018-12-01T04:39:50.493Z,15.80
2018-12-01T04:40:29.384Z,13.30
2018-12-01T04:41:29.310Z,12.60
2018-12-01T04:42:29.230Z,15.80
2018-12-01T04:43:29.141Z,16.40
2018-12-01T04:44:29.051Z,13.10
2018-12-01T04:45:29.999Z,11.40
2018-12-01T04:46:28.879Z,16.10
2018-12-01T04:49:10.968Z,13.40
2018-12-01T04:50:10.949Z,17.90
2018-12-01T04:51:10.800Z,12.50
2018-12-01T04:52:10.726Z,13.00
2018-12-01T04:53:10.642Z,14.60
2018-12-01T04:54:10.559Z,13.80
2018-12-01T04:57:25.484Z,14.00
2018-12-01T04:58:25.385Z,14.10
2018-12-01T04:59:25.315Z,15.50
2018-12-01T05:00:25.247Z,13.90
2018-12-01T05:01:25.149Z,11.90
2018-12-01T05:02:25.052Z,15.90
2018-12-01T05:03:24.969Z,12.50
2018-12-01T05:04:24.880Z,15.20
2018-12-01T05:05:25.009Z,11.20
2018-12-01T05:06:24.707Z,15.50
2018-12-01T05:07:24.633Z,13.40
2018-12-01T05:08:24.545Z,16.50
2018-12-01T05:09:24.463Z,16.40
2018-12-01T05:10:24.405Z,13.00
2018-12-01T05:11:24.296Z,14.30
2018-12-01T05:12:24.201Z,14.70
2018-12-01T05:15:06.475Z,14.50
2018-12-01T05:16:06.437Z,12.80
2018-12-01T05:17:06.310Z,15.80
2018-12-01T05:18:06.230Z,19.20
2018-12-01T05:19:06.140Z,16.30
2018-12-01T05:21:48.505Z,15.60
2018-12-01T05:22:48.399Z,16.40
2018-12-01T05:23:48.306Z,15.30
2018-12-01T05:24:48.236Z,13.00
2018-12-01T05:25:48.137Z,19.60
2018-12-01T05:26:48.169Z,16.90
2018-12-01T05:27:47.971Z,17.20
2018-12-01T05:28:47.892Z,12.00
2018-12-01T05:29:47.804Z,16.60
2018-12-01T05:30:47.724Z,17.70
2018-12-01T05:31:47.665Z,16.40
2018-12-01T05:34:29.479Z,13.60
2018-12-01T05:35:29.398Z,15.40
2018-12-01T05:36:29.316Z,16.90
2018-12-01T05:37:29.270Z,12.10
2018-12-01T05:38:29.145Z,15.50
2018-12-01T05:50:20.474Z,13.00
2018-12-01T05:51:20.328Z,15.60
2018-12-01T05:52:20.248Z,16.10
2018-12-01T05:53:20.192Z,17.80
2018-12-01T05:56:02.002Z,13.90
2018-12-01T05:57:01.907Z,12.40
2018-12-01T05:58:01.844Z,16.10
2018-12-01T05:59:01.731Z,12.50
2018-12-01T06:00:01.645Z,15.80
2018-12-01T06:01:01.561Z,17.00
2018-12-01T06:02:01.485Z,13.60
2018-12-01T06:25:28.320Z,18.70
2018-12-01T06:26:28.249Z,17.40
2018-12-01T06:27:28.153Z,12.90
2018-12-01T06:28:28.106Z,16.40
2018-12-01T06:29:27.982Z,14.90
2018-12-01T06:30:27.933Z,16.40
2018-12-01T06:31:27.812Z,15.50
2018-12-01T06:32:27.755Z,17.80
2018-12-01T06:33:27.726Z,18.10
2018-12-01T06:34:27.557Z,13.00
2018-12-01T06:35:27.461Z,16.30
2018-12-01T06:36:27.394Z,15.60
2018-12-01T06:37:27.290Z,18.00
2018-12-01T06:38:27.219Z,15.80
2018-12-01T06:39:27.166Z,17.20
2018-12-01T06:42:08.992Z,16.70
2018-12-01T06:43:08.907Z,16.20
2018-12-01T06:44:08.851Z,19.30
2018-12-01T06:45:08.744Z,14.80
2018-12-01T06:46:08.677Z,19.60
2018-12-01T06:47:08.563Z,15.80
2018-12-01T06:48:08.486Z,14.30
2018-12-01T06:49:08.397Z,15.20
2018-12-01T06:50:08.309Z,19.90
2018-12-01T06:51:08.275Z,16.20
2018-12-01T06:52:08.143Z,15.40
2018-12-01T06:53:08.067Z,15.20
2018-12-01T06:54:07.968Z,15.50
2018-12-01T06:56:50.017Z,16.70
2018-12-01T06:57:49.912Z,14.90
2018-12-01T06:58:49.819Z,14.20
2018-12-01T07:10:38.415Z,15.00
2018-12-01T07:11:37.213Z,83.70
2018-12-01T07:12:37.258Z,18.10
2018-12-01T07:13:37.049Z,15.20
2018-12-01T07:14:37.068Z,17.00
2018-12-01T07:15:36.902Z,16.30
2018-12-01T07:16:36.881Z,17.90
2018-12-01T07:17:36.711Z,16.70
2018-12-01T07:18:36.685Z,19.60
2018-12-01T07:19:36.531Z,15.50
2018-12-01T07:20:36.530Z,18.60
2018-12-01T07:21:36.373Z,18.10
2018-12-01T07:22:36.400Z,15.20
2018-12-01T07:23:36.194Z,15.70
2018-12-01T07:24:36.207Z,15.30
2018-12-01T07:25:36.088Z,17.10
2018-12-01T07:26:35.941Z,14.80
2018-12-01T07:27:35.883Z,18.50
2018-12-01T07:28:35.766Z,17.40
2018-12-01T07:29:35.711Z,18.20
2018-12-01T07:30:35.595Z,15.50
2018-12-01T07:31:35.544Z,18.20
2018-12-01T07:32:35.461Z,15.60
2018-12-01T07:33:35.343Z,18.30
2018-12-01T07:34:35.259Z,16.30
2018-12-01T07:35:35.170Z,17.10
2018-12-01T07:36:35.088Z,17.30
2018-12-01T07:37:35.034Z,19.50
2018-12-01T07:38:34.916Z,15.10
2018-12-01T07:39:34.824Z,17.30
2018-12-01T07:40:34.782Z,18.20
2018-12-01T07:41:34.678Z,23.20
2018-12-01T07:42:34.582Z,19.40
2018-12-01T07:43:34.516Z,14.10
2018-12-01T07:44:34.412Z,17.10
2018-12-01T07:45:34.318Z,16.80
2018-12-01T07:48:16.532Z,14.00
2018-12-01T07:49:16.430Z,18.10
2018-12-01T07:50:16.338Z,18.40
2018-12-01T07:52:58.529Z,19.10
2018-12-01T07:53:58.434Z,15.60
2018-12-01T07:54:58.325Z,16.20
2018-12-01T07:58:42.553Z,13.70
2018-12-01T07:59:42.423Z,18.30
2018-12-01T08:00:42.371Z,14.70
2018-12-01T08:01:42.247Z,17.10
2018-12-01T08:02:42.201Z,14.30
2018-12-01T08:05:24.500Z,15.80
2018-12-01T08:06:24.439Z,19.00
2018-12-01T08:07:24.378Z,18.70
2018-12-01T08:08:24.276Z,18.40
2018-12-01T08:09:24.161Z,16.30
2018-12-01T08:12:06.015Z,19.70
2018-12-01T08:13:26.949Z,16.50
2018-12-01T08:14:05.870Z,16.90
2018-12-01T08:15:05.752Z,17.50
2018-12-01T08:16:05.667Z,17.90
2018-12-01T08:17:05.581Z,18.10
2018-12-01T08:18:05.671Z,16.30
2018-12-01T08:19:05.413Z,14.40
2018-12-01T08:20:05.333Z,18.20
2018-12-01T08:21:05.237Z,16.10
2018-12-01T08:26:19.525Z,16.90
2018-12-01T08:27:19.426Z,20.60
2018-12-01T08:40:27.672Z,20.50
2018-12-01T08:41:27.582Z,18.60
2018-12-01T08:42:27.471Z,19.80
2018-12-01T08:43:27.424Z,15.10
2018-12-01T08:44:27.300Z,18.40
2018-12-01T08:45:28.485Z,15.00
2018-12-01T08:46:27.152Z,17.90
2018-12-01T08:49:09.038Z,15.80
2018-12-01T08:50:09.955Z,15.20
2018-12-01T08:51:08.843Z,16.80
2018-12-01T08:53:51.056Z,15.80
2018-12-01T08:54:50.983Z,18.10
2018-12-01T08:55:50.879Z,15.70
2018-12-01T08:58:33.019Z,18.40
2018-12-01T08:59:32.970Z,16.70
2018-12-01T09:00:32.848Z,15.90
2018-12-01T09:01:32.757Z,15.30
2018-12-01T09:02:32.669Z,18.20
2018-12-01T09:03:32.602Z,14.10
2018-12-01T09:04:32.533Z,14.70
2018-12-01T09:05:32.431Z,15.40
2018-12-01T09:06:32.333Z,16.50
2018-12-01T09:07:32.257Z,15.90
2018-12-01T09:08:32.182Z,14.90
2018-12-01T09:09:32.173Z,12.50
2018-12-01T09:17:35.931Z,16.60
2018-12-01T09:18:35.787Z,15.50
2018-12-01T09:19:35.691Z,13.50
2018-12-01T09:20:35.618Z,13.60
2018-12-01T09:21:35.583Z,15.60
2018-12-01T09:22:35.500Z,13.80
2018-12-01T09:23:35.397Z,13.10
2018-12-01T09:24:35.296Z,14.00
2018-12-01T09:25:35.200Z,14.50
2018-12-01T09:26:35.154Z,13.70
2018-12-01T09:27:35.029Z,12.00
2018-12-01T09:28:34.990Z,16.80
2018-12-01T09:29:34.857Z,13.00
2018-12-01T09:30:34.796Z,12.00
2018-12-01T09:31:34.721Z,14.90
2018-12-01T09:32:34.647Z,13.30
2018-12-01T09:33:34.527Z,13.40
2018-12-01T09:36:16.536Z,12.40
2018-12-01T09:37:16.491Z,13.10
2018-12-01T09:38:16.370Z,12.20
2018-12-01T09:39:16.272Z,15.60
2018-12-01T09:40:16.178Z,12.40
2018-12-01T09:41:16.108Z,14.40
2018-12-01T09:42:16.135Z,12.10
2018-12-01T09:43:15.986Z,12.80
2018-12-01T09:44:15.847Z,10.40
2018-12-01T09:46:58.024Z,13.80
2018-12-01T09:47:57.950Z,13.00
2018-12-01T09:48:57.920Z,11.70
2018-12-01T09:49:57.779Z,13.60
2018-12-01T09:50:57.700Z,9.20
2018-12-01T09:51:57.633Z,10.70
2018-12-01T09:52:57.518Z,12.00
2018-12-01T09:53:57.481Z,10.90
2018-12-01T09:54:57.353Z,10.50
2018-12-01T09:57:39.623Z,12.60
2018-12-01T09:58:39.442Z,13.20
2018-12-01T09:59:39.391Z,11.00
2018-12-01T10:00:39.271Z,10.90
2018-12-01T10:01:39.194Z,11.10
2018-12-01T10:02:39.177Z,9.70
2018-12-01T10:03:39.033Z,13.80
2018-12-01T10:04:38.972Z,12.70
2018-12-01T10:05:38.901Z,11.30
2018-12-01T10:06:38.891Z,10.10
2018-12-01T10:07:38.726Z,10.50
2018-12-01T10:08:38.742Z,14.10
2018-12-01T10:09:38.544Z,11.10
2018-12-01T10:10:38.503Z,8.30
2018-12-01T10:11:38.368Z,7.80
2018-12-01T10:13:00.570Z,8.20
2018-12-01T10:13:38.359Z,11.10
2018-12-01T10:14:38.132Z,11.50
2018-12-01T10:16:01.709Z,9.90
2018-12-01T10:16:38.395Z,8.80
2018-12-01T10:17:37.894Z,9.00
2018-12-01T10:18:38.963Z,10.90
2018-12-01T10:19:37.740Z,10.00
2018-12-01T10:20:38.693Z,11.50
2018-12-01T10:23:15.200Z,9.40
2018-12-01T10:23:40.500Z,11.20
2018-12-01T10:24:37.420Z,7.50
2018-12-01T10:25:37.299Z,9.00
2018-12-01T10:26:37.362Z,9.70
2018-12-01T10:27:37.191Z,10.30
2018-12-01T10:28:37.125Z,9.20
2018-12-01T10:29:37.026Z,9.30
2018-12-01T10:30:36.880Z,10.40
2018-12-01T10:31:36.906Z,10.80
2018-12-01T10:32:36.668Z,10.80
2018-12-01T10:33:36.659Z,9.60
2018-12-01T10:34:36.519Z,10.70
2018-12-01T10:35:36.567Z,9.10
2018-12-01T10:36:36.345Z,7.30
2018-12-01T10:37:36.277Z,8.70
2018-12-01T10:38:36.200Z,10.60
2018-12-01T10:41:18.058Z,10.00
2018-12-01T10:44:00.155Z,9.40
2018-12-01T10:44:59.970Z,10.20
2018-12-01T10:45:59.905Z,9.30
2018-12-01T10:46:59.812Z,9.80
2018-12-01T10:47:59.722Z,9.40
2018-12-01T11:12:33.627Z,10.40
2018-12-01T11:13:33.503Z,16.50
2018-12-01T11:14:33.367Z,17.70
2018-12-01T11:17:15.595Z,11.00
2018-12-01T11:18:15.509Z,10.70
2018-12-01T11:19:15.405Z,9.30
2018-12-01T11:20:15.330Z,9.60
2018-12-01T11:21:15.221Z,7.30
2018-12-01T11:22:15.144Z,9.20
2018-12-01T11:23:15.096Z,8.70
2018-12-01T11:24:14.982Z,7.40
2018-12-01T11:25:14.893Z,10.40
2018-12-01T11:26:15.860Z,6.40
2018-12-01T11:27:14.758Z,9.40
2018-12-01T11:29:56.552Z,7.50
2018-12-01T11:32:38.576Z,7.50
2018-12-01T11:35:20.557Z,7.00
2018-12-01T11:36:20.532Z,7.40
2018-12-01T11:37:20.446Z,5.90
2018-12-01T11:38:20.469Z,8.00
2018-12-01T11:39:20.236Z,7.40
2018-12-01T11:40:20.169Z,7.40
2018-12-01T11:41:20.142Z,5.60
2018-12-01T11:42:21.021Z,5.00
2018-12-01T11:43:19.934Z,6.50
2018-12-01T11:44:19.821Z,6.90
2018-12-01T11:45:19.721Z,6.20
2018-12-01T11:58:26.082Z,5.70
2018-12-01T11:59:25.961Z,5.40
2018-12-01T12:00:25.900Z,5.70
2018-12-01T12:01:25.810Z,4.90
2018-12-01T12:02:25.739Z,6.00
2018-12-01T12:04:25.575Z,5.60
2018-12-01T12:05:25.479Z,5.50
2018-12-01T12:06:25.390Z,5.60
2018-12-01T12:07:25.305Z,5.60
2018-12-01T12:08:25.257Z,4.70
2018-12-01T12:09:25.151Z,5.80
2018-12-01T12:10:25.082Z,5.40
2018-12-01T12:11:24.980Z,4.80
2018-12-01T12:12:24.921Z,7.00
2018-12-01T12:13:24.910Z,5.50
2018-12-01T12:14:24.738Z,6.00
2018-12-01T12:17:06.582Z,6.60
2018-12-01T12:18:06.493Z,4.20
2018-12-01T12:19:06.442Z,4.60
2018-12-01T12:20:06.368Z,4.60
2018-12-01T12:21:06.241Z,6.50
2018-12-01T12:22:06.183Z,4.90
2018-12-01T12:23:06.151Z,6.10
2018-12-01T12:24:06.047Z,7.80
2018-12-01T12:25:05.953Z,7.00
2018-12-01T12:26:05.868Z,8.20
2018-12-01T12:27:05.877Z,4.80
2018-12-01T12:29:47.604Z,3.60
2018-12-01T12:30:47.507Z,4.70
2018-12-01T12:31:47.395Z,4.60
2018-12-01T12:58:14.182Z,7.50
2018-12-01T12:59:14.068Z,3.70
2018-12-01T13:01:56.129Z,4.30
2018-12-01T13:02:56.038Z,5.20
2018-12-01T13:03:55.917Z,4.80
2018-12-01T13:06:38.136Z,5.30
2018-12-01T13:07:38.007Z,6.80
2018-12-01T13:08:37.935Z,6.00
2018-12-01T13:09:37.828Z,5.10
2018-12-01T13:10:37.754Z,6.00
2018-12-01T13:11:37.672Z,5.70
2018-12-01T13:12:37.624Z,6.70
2018-12-01T13:13:37.500Z,7.20
2018-12-01T13:14:37.435Z,5.70
2018-12-01T13:15:37.341Z,7.10
2018-12-01T13:16:37.253Z,3.90
2018-12-01T13:17:37.191Z,8.20
2018-12-01T13:18:37.116Z,5.00
2018-12-01T13:21:19.075Z,6.20
2018-12-01T13:22:20.077Z,7.10
2018-12-01T13:23:18.954Z,5.90
2018-12-01T13:26:01.078Z,5.70
2018-12-01T13:27:01.025Z,6.30
2018-12-01T13:28:00.945Z,6.00
2018-12-01T13:29:00.830Z,4.70
2018-12-01T13:30:00.766Z,4.70
2018-12-01T13:31:00.751Z,4.10
2018-12-01T13:33:33.167Z,4.00
2018-12-01T13:36:15.095Z,4.60
2018-12-01T13:38:57.150Z,6.30
2018-12-01T13:39:57.016Z,6.20
2018-12-01T13:40:56.917Z,8.90
2018-12-01T13:43:39.124Z,7.50
2018-12-01T13:44:39.015Z,5.10
2018-12-01T13:45:38.945Z,5.50
2018-12-01T13:46:38.860Z,4.90
2018-12-01T13:47:38.762Z,8.10
2018-12-01T13:49:50.763Z,4.40
2018-12-01T13:50:50.656Z,8.50
2018-12-01T13:51:50.573Z,4.80
2018-12-01T13:52:50.473Z,7.90
2018-12-01T13:53:50.435Z,6.30
2018-12-01T13:54:50.324Z,6.10
2018-12-01T13:55:50.225Z,4.30
2018-12-01T13:58:32.085Z,7.30
2018-12-01T13:59:32.057Z,4.60
2018-12-01T14:00:31.931Z,6.60
2018-12-01T14:03:14.099Z,4.90
2018-12-01T14:04:14.082Z,5.00
2018-12-01T14:05:14.008Z,5.50
2018-12-01T14:26:59.013Z,4.30
2018-12-01T14:27:58.857Z,6.00
2018-12-01T14:28:58.800Z,4.40
2018-12-01T14:29:58.686Z,6.30
2018-12-01T14:30:58.619Z,5.60
2018-12-01T14:31:58.578Z,7.30
2018-12-01T14:32:58.445Z,5.60
2018-12-01T14:33:58.358Z,4.40
2018-12-01T14:34:58.287Z,4.70
2018-12-01T14:35:58.194Z,5.00
2018-12-01T14:36:58.158Z,5.60
2018-12-01T14:37:58.034Z,5.30
2018-12-01T14:38:57.959Z,4.70
2018-12-01T14:39:57.886Z,4.10
2018-12-01T14:40:57.818Z,4.10
2018-12-01T14:41:57.714Z,5.60
2018-12-01T14:42:57.627Z,3.90
2018-12-01T14:43:57.527Z,4.40
2018-12-01T14:46:39.647Z,4.30
2018-12-01T14:49:21.675Z,5.10
2018-12-01T14:50:21.547Z,4.20
2018-12-01T14:51:21.529Z,6.10
2018-12-01T14:54:03.600Z,5.20
2018-12-01T14:55:03.561Z,6.10
2018-12-01T14:56:03.482Z,4.90
2018-12-01T14:57:03.403Z,5.70
2018-12-01T14:58:03.306Z,4.20
2018-12-01T14:59:03.190Z,5.70
2018-12-01T15:00:03.179Z,5.60
2018-12-01T15:01:03.030Z,4.40
2018-12-01T15:02:02.975Z,5.10
2018-12-01T15:03:02.874Z,6.50
2018-12-01T15:04:02.779Z,9.40
2018-12-01T15:05:02.716Z,5.80
2018-12-01T15:06:02.615Z,5.60
2018-12-01T15:07:02.601Z,7.40
2018-12-01T15:08:02.427Z,6.40
2018-12-01T15:10:44.590Z,6.20
2018-12-01T15:11:44.646Z,5.40
2018-12-01T15:12:44.444Z,4.30
2018-12-01T15:13:44.419Z,5.50
2018-12-01T15:14:44.277Z,4.80
2018-12-01T15:15:44.227Z,6.50
2018-12-01T15:16:44.125Z,6.80
2018-12-01T15:17:45.106Z,6.00
2018-12-01T15:18:43.938Z,7.20
2018-12-01T15:21:26.096Z,6.60
2018-12-01T15:22:27.101Z,5.40
2018-12-01T15:23:25.946Z,7.40
2018-12-01T15:24:25.965Z,6.50
2018-12-01T15:25:25.777Z,7.40
2018-12-01T15:26:25.764Z,6.80
2018-12-01T15:27:25.614Z,6.40
2018-12-01T15:28:25.619Z,5.80
2018-12-01T15:29:25.458Z,6.90
2018-12-01T15:30:25.418Z,5.20
2018-12-01T15:31:25.270Z,5.70
2018-12-01T15:32:25.238Z,5.70
2018-12-01T15:33:25.140Z,3.70
2018-12-01T15:34:25.128Z,8.00
2018-12-01T15:35:24.938Z,6.20
2018-12-01T15:36:24.920Z,7.20
2018-12-01T15:37:24.781Z,6.70
2018-12-01T15:38:24.779Z,6.90
2018-12-01T15:39:24.597Z,6.90
2018-12-01T15:40:24.643Z,7.30
2018-12-01T15:41:24.429Z,6.90
2018-12-01T15:42:24.451Z,8.00
2018-12-01T15:43:24.331Z,7.40
2018-12-01T15:44:24.264Z,7.30
2018-12-01T15:45:24.098Z,7.70
2018-12-01T15:46:24.062Z,7.50
2018-12-01T15:47:23.919Z,5.50
2018-12-01T15:48:24.931Z,6.10
2018-12-01T15:49:23.764Z,6.10
2018-12-01T15:50:23.790Z,6.80
2018-12-01T15:51:23.599Z,7.70
2018-12-01T15:52:23.597Z,6.10
2018-12-01T15:53:23.464Z,6.80
2018-12-01T15:54:23.410Z,5.90
2018-12-01T15:55:23.267Z,7.10
2018-12-01T15:56:23.209Z,5.80
2018-12-01T15:57:23.082Z,8.30
2018-12-01T15:58:23.053Z,5.90
2018-12-01T15:59:22.911Z,5.40
2018-12-01T16:00:22.932Z,4.80
2018-12-01T16:01:22.773Z,5.80
2018-12-01T16:02:22.762Z,7.80
2018-12-01T16:03:22.648Z,8.80
2018-12-01T16:04:22.552Z,6.90
2018-12-01T16:05:22.410Z,7.00
2018-12-01T16:06:22.363Z,8.20
2018-12-01T16:07:22.269Z,6.90
2018-12-01T16:08:22.304Z,6.90
2018-12-01T16:09:22.105Z,6.80
2018-12-01T16:10:22.079Z,6.50
2018-12-01T16:11:21.902Z,6.80
2018-12-01T16:14:04.197Z,8.10
2018-12-01T16:15:04.109Z,9.80
2018-12-01T16:16:03.960Z,8.20
2018-12-01T16:17:03.911Z,8.10
2018-12-01T16:18:03.776Z,8.00
2018-12-01T16:19:03.725Z,8.00
2018-12-01T16:20:04.047Z,4.40
2018-12-01T16:21:03.640Z,5.60
2018-12-01T16:22:03.450Z,8.70
2018-12-01T16:23:03.440Z,6.50
2018-12-01T16:24:03.291Z,8.70
2018-12-01T16:25:03.296Z,8.30
2018-12-01T16:26:03.137Z,7.60
2018-12-01T16:27:03.061Z,7.60
2018-12-01T16:28:02.936Z,9.70
2018-12-01T16:30:45.141Z,6.70
2018-12-01T16:31:45.064Z,6.50
2018-12-01T16:32:44.955Z,8.40
2018-12-01T16:35:27.167Z,6.70
2018-12-01T16:36:27.079Z,8.20
2018-12-01T16:37:26.964Z,8.00
2018-12-01T16:38:26.894Z,8.20
2018-12-01T16:39:26.781Z,6.20
2018-12-01T16:40:26.861Z,7.90
2018-12-01T16:41:26.627Z,7.20
2018-12-01T16:42:26.614Z,9.80
2018-12-01T16:43:26.463Z,9.30
2018-12-01T16:44:26.416Z,6.80
2018-12-01T16:45:26.338Z,10.50
2018-12-01T16:46:26.494Z,7.60
2018-12-01T16:47:26.118Z,9.10
2018-12-01T16:48:26.044Z,10.40
2018-12-01T16:49:25.964Z,10.70
2018-12-01T16:50:25.957Z,8.50
2018-12-01T17:03:59.783Z,9.90
2018-12-01T17:04:59.731Z,8.60
2018-12-01T17:05:59.574Z,9.30
2018-12-01T17:07:00.606Z,8.90
2018-12-01T17:07:59.410Z,7.20
2018-12-01T17:10:41.631Z,7.90
2018-12-01T17:11:41.601Z,8.90
2018-12-01T17:12:41.448Z,5.20
2018-12-01T17:13:41.480Z,7.60
2018-12-01T17:14:41.284Z,7.20
2018-12-01T17:17:23.178Z,8.90
2018-12-01T17:18:23.102Z,9.40
2018-12-01T17:19:22.965Z,8.60
2018-12-01T17:20:22.975Z,7.70
2018-12-01T17:21:22.800Z,7.30
2018-12-01T17:22:22.901Z,9.70
2018-12-01T17:23:22.652Z,7.70
2018-12-01T17:24:22.733Z,8.60
2018-12-01T17:25:22.471Z,6.60
2018-12-01T17:26:22.525Z,7.70
2018-12-01T17:27:22.300Z,8.90
2018-12-01T17:28:23.464Z,9.20
2018-12-01T17:29:22.146Z,7.00
2018-12-01T17:30:22.262Z,8.80
2018-12-01T17:31:21.998Z,8.00
2018-12-01T17:39:13.329Z,8.80
2018-12-01T17:40:13.286Z,7.70
2018-12-01T17:41:13.120Z,10.50
2018-12-01T17:42:13.094Z,10.80
2018-12-01T17:43:12.954Z,8.20
2018-12-01T17:44:12.946Z,8.70
2018-12-01T17:45:12.782Z,8.30
2018-12-01T17:46:12.720Z,9.90
2018-12-01T17:47:12.624Z,11.50
2018-12-01T17:48:12.642Z,7.20
2018-12-01T17:49:12.483Z,6.20
2018-12-01T17:50:12.428Z,8.20
2018-12-01T17:51:12.295Z,9.40
2018-12-01T17:52:12.249Z,7.70
2018-12-01T17:53:12.101Z,8.00
2018-12-01T17:54:12.155Z,6.50
2018-12-01T17:55:11.954Z,7.30
2018-12-01T17:56:11.868Z,6.90
2018-12-01T17:57:11.758Z,6.50
2018-12-01T17:58:11.771Z,8.30